sensor_id;sensor_type;location;lat;lon;timestamp;P1;durP1;ratioP1;P2;durP2;ratioP2
6626;SDS011;3349;49.830;8.748;2023-07-28T00:00:20;3.65;;;3.20;;
6626;SDS011;3349;49.830;8.748;2023-07-28T00:02:47;5.03;;;3.97;;
6626;SDS011;3349;49.830;8.748;2023-07-28T00:05:14;5.68;;;3.55;;
6626;SDS011;3349;49.830;8.748;2023-07-28T00:07:40;6.72;;;3.88;;
6626;SDS011;3349;49.830;8.748;2023-07-28T00:10:07;3.80;;;3.45;;
6626;SDS011;3349;49.830;8.748;2023-07-28T00:12:35;3.97;;;3.30;;
6626;SDS011;3349;49.830;8.748;2023-07-28T00:15:02;8.45;;;3.47;;
6626;SDS011;3349;49.830;8.748;2023-07-28T00:17:30;4.90;;;3.38;;
6626;SDS011;3349;49.830;8.748;2023-07-28T00:19:57;3.58;;;3.10;;
6626;SDS011;3349;49.830;8.748;2023-07-28T00:22:23;4.88;;;3.25;;
6626;SDS011;3349;49.830;8.748;2023-07-28T00:24:50;3.95;;;3.58;;
6626;SDS011;3349;49.830;8.748;2023-07-28T00:27:17;4.63;;;3.13;;
6626;SDS011;3349;49.830;8.748;2023-07-28T00:29:43;3.35;;;3.00;;
6626;SDS011;3349;49.830;8.748;2023-07-28T00:32:10;4.35;;;3.38;;
6626;SDS011;3349;49.830;8.748;2023-07-28T00:34:38;4.20;;;3.55;;
6626;SDS011;3349;49.830;8.748;2023-07-28T00:37:05;3.40;;;3.10;;
6626;SDS011;3349;49.830;8.748;2023-07-28T00:39:32;3.88;;;3.17;;
6626;SDS011;3349;49.830;8.748;2023-07-28T00:41:58;5.95;;;3.70;;
6626;SDS011;3349;49.830;8.748;2023-07-28T00:44:25;3.67;;;3.33;;
6626;SDS011;3349;49.830;8.748;2023-07-28T00:46:52;4.03;;;3.63;;
6626;SDS011;3349;49.830;8.748;2023-07-28T00:49:18;3.70;;;3.40;;
6626;SDS011;3349;49.830;8.748;2023-07-28T00:51:46;4.85;;;3.47;;
6626;SDS011;3349;49.830;8.748;2023-07-28T00:54:15;5.40;;;3.25;;
6626;SDS011;3349;49.830;8.748;2023-07-28T00:56:43;4.75;;;3.35;;
6626;SDS011;3349;49.830;8.748;2023-07-28T00:59:10;3.95;;;3.40;;
6626;SDS011;3349;49.830;8.748;2023-07-28T01:01:37;4.15;;;3.53;;
6626;SDS011;3349;49.830;8.748;2023-07-28T01:04:04;4.93;;;3.30;;
6626;SDS011;3349;49.830;8.748;2023-07-28T01:06:39;4.38;;;3.17;;
6626;SDS011;3349;49.830;8.748;2023-07-28T01:09:14;3.72;;;3.38;;
6626;SDS011;3349;49.830;8.748;2023-07-28T01:11:54;4.55;;;3.40;;
6626;SDS011;3349;49.830;8.748;2023-07-28T01:14:20;4.15;;;3.30;;
6626;SDS011;3349;49.830;8.748;2023-07-28T01:16:47;4.68;;;3.38;;
6626;SDS011;3349;49.830;8.748;2023-07-28T01:19:14;3.58;;;2.78;;
6626;SDS011;3349;49.830;8.748;2023-07-28T01:21:44;4.07;;;3.67;;
6626;SDS011;3349;49.830;8.748;2023-07-28T01:24:17;3.58;;;3.08;;
6626;SDS011;3349;49.830;8.748;2023-07-28T01:26:52;3.78;;;3.22;;
6626;SDS011;3349;49.830;8.748;2023-07-28T01:29:19;3.40;;;3.10;;
6626;SDS011;3349;49.830;8.748;2023-07-28T01:31:47;4.18;;;2.90;;
6626;SDS011;3349;49.830;8.748;2023-07-28T01:34:13;3.42;;;3.00;;
6626;SDS011;3349;49.830;8.748;2023-07-28T01:36:40;3.70;;;3.25;;
6626;SDS011;3349;49.830;8.748;2023-07-28T01:39:07;3.45;;;3.10;;
6626;SDS011;3349;49.830;8.748;2023-07-28T01:41:33;4.25;;;3.30;;
6626;SDS011;3349;49.830;8.748;2023-07-28T01:44:01;4.13;;;3.17;;
6626;SDS011;3349;49.830;8.748;2023-07-28T01:46:28;4.82;;;2.85;;
6626;SDS011;3349;49.830;8.748;2023-07-28T01:48:55;3.33;;;3.03;;
6626;SDS011;3349;49.830;8.748;2023-07-28T01:51:21;3.67;;;3.28;;
6626;SDS011;3349;49.830;8.748;2023-07-28T01:53:48;3.92;;;3.45;;
6626;SDS011;3349;49.830;8.748;2023-07-28T01:56:16;3.30;;;2.90;;
6626;SDS011;3349;49.830;8.748;2023-07-28T01:58:43;3.75;;;3.30;;
6626;SDS011;3349;49.830;8.748;2023-07-28T02:01:13;4.18;;;3.78;;
6626;SDS011;3349;49.830;8.748;2023-07-28T02:03:40;3.75;;;3.35;;
6626;SDS011;3349;49.830;8.748;2023-07-28T02:06:06;3.75;;;3.35;;
6626;SDS011;3349;49.830;8.748;2023-07-28T02:08:33;3.30;;;3.00;;
6626;SDS011;3349;49.830;8.748;2023-07-28T02:11:00;4.00;;;3.22;;
6626;SDS011;3349;49.830;8.748;2023-07-28T02:13:26;3.30;;;2.88;;
6626;SDS011;3349;49.830;8.748;2023-07-28T02:15:53;3.38;;;3.08;;
6626;SDS011;3349;49.830;8.748;2023-07-28T02:18:21;3.60;;;2.72;;
6626;SDS011;3349;49.830;8.748;2023-07-28T02:20:48;4.22;;;2.85;;
6626;SDS011;3349;49.830;8.748;2023-07-28T02:23:15;3.00;;;2.63;;
6626;SDS011;3349;49.830;8.748;2023-07-28T02:25:41;3.03;;;2.72;;
6626;SDS011;3349;49.830;8.748;2023-07-28T02:28:09;4.40;;;2.85;;
6626;SDS011;3349;49.830;8.748;2023-07-28T02:30:36;2.88;;;2.67;;
6626;SDS011;3349;49.830;8.748;2023-07-28T02:33:03;3.45;;;2.53;;
6626;SDS011;3349;49.830;8.748;2023-07-28T02:35:31;3.10;;;2.80;;
6626;SDS011;3349;49.830;8.748;2023-07-28T02:37:58;3.30;;;2.90;;
6626;SDS011;3349;49.830;8.748;2023-07-28T02:40:24;2.80;;;2.60;;
6626;SDS011;3349;49.830;8.748;2023-07-28T02:42:51;3.70;;;2.40;;
6626;SDS011;3349;49.830;8.748;2023-07-28T02:45:18;2.80;;;2.60;;
6626;SDS011;3349;49.830;8.748;2023-07-28T02:47:45;5.95;;;2.67;;
6626;SDS011;3349;49.830;8.748;2023-07-28T02:50:11;5.57;;;3.28;;
6626;SDS011;3349;49.830;8.748;2023-07-28T02:52:39;3.35;;;2.78;;
6626;SDS011;3349;49.830;8.748;2023-07-28T02:55:06;3.40;;;2.75;;
6626;SDS011;3349;49.830;8.748;2023-07-28T02:57:33;3.15;;;2.85;;
6626;SDS011;3349;49.830;8.748;2023-07-28T03:00:00;4.10;;;2.83;;
6626;SDS011;3349;49.830;8.748;2023-07-28T03:02:27;3.88;;;3.05;;
6626;SDS011;3349;49.830;8.748;2023-07-28T03:04:54;3.55;;;2.97;;
6626;SDS011;3349;49.830;8.748;2023-07-28T03:07:21;3.30;;;3.00;;
6626;SDS011;3349;49.830;8.748;2023-07-28T03:09:49;3.30;;;3.00;;
6626;SDS011;3349;49.830;8.748;2023-07-28T03:12:16;3.83;;;3.13;;
6626;SDS011;3349;49.830;8.748;2023-07-28T03:14:42;3.55;;;2.92;;
6626;SDS011;3349;49.830;8.748;2023-07-28T03:17:09;3.50;;;2.88;;
6626;SDS011;3349;49.830;8.748;2023-07-28T03:19:36;3.15;;;2.85;;
6626;SDS011;3349;49.830;8.748;2023-07-28T03:22:02;2.92;;;2.70;;
6626;SDS011;3349;49.830;8.748;2023-07-28T03:24:29;3.38;;;3.08;;
6626;SDS011;3349;49.830;8.748;2023-07-28T03:26:57;3.97;;;3.10;;
6626;SDS011;3349;49.830;8.748;2023-07-28T03:29:24;3.90;;;2.97;;
6626;SDS011;3349;49.830;8.748;2023-07-28T03:31:50;3.63;;;3.00;;
6626;SDS011;3349;49.830;8.748;2023-07-28T03:34:17;3.00;;;2.80;;
6626;SDS011;3349;49.830;8.748;2023-07-28T03:36:44;2.95;;;2.65;;
6626;SDS011;3349;49.830;8.748;2023-07-28T03:39:11;2.85;;;2.50;;
6626;SDS011;3349;49.830;8.748;2023-07-28T03:41:38;4.78;;;2.47;;
6626;SDS011;3349;49.830;8.748;2023-07-28T03:44:06;3.95;;;2.50;;
6626;SDS011;3349;49.830;8.748;2023-07-28T03:46:32;4.43;;;2.55;;
6626;SDS011;3349;49.830;8.748;2023-07-28T03:48:59;2.88;;;2.45;;
6626;SDS011;3349;49.830;8.748;2023-07-28T03:51:26;3.85;;;2.22;;
6626;SDS011;3349;49.830;8.748;2023-07-28T03:53:52;4.43;;;2.65;;
6626;SDS011;3349;49.830;8.748;2023-07-28T03:56:19;3.50;;;2.33;;
6626;SDS011;3349;49.830;8.748;2023-07-28T03:58:46;2.92;;;2.63;;
6626;SDS011;3349;49.830;8.748;2023-07-28T04:01:14;2.78;;;2.58;;
6626;SDS011;3349;49.830;8.748;2023-07-28T04:03:40;3.60;;;2.90;;
6626;SDS011;3349;49.830;8.748;2023-07-28T04:06:09;3.20;;;2.70;;
6626;SDS011;3349;49.830;8.748;2023-07-28T04:08:37;3.03;;;2.70;;
6626;SDS011;3349;49.830;8.748;2023-07-28T04:11:03;3.28;;;2.97;;
6626;SDS011;3349;49.830;8.748;2023-07-28T04:13:30;3.72;;;3.10;;
6626;SDS011;3349;49.830;8.748;2023-07-28T04:15:57;4.63;;;3.15;;
6626;SDS011;3349;49.830;8.748;2023-07-28T04:18:25;3.55;;;3.25;;
6626;SDS011;3349;49.830;8.748;2023-07-28T04:20:52;3.47;;;3.15;;
6626;SDS011;3349;49.830;8.748;2023-07-28T04:23:19;3.03;;;2.83;;
6626;SDS011;3349;49.830;8.748;2023-07-28T04:25:45;3.40;;;3.10;;
6626;SDS011;3349;49.830;8.748;2023-07-28T04:28:12;3.90;;;3.50;;
6626;SDS011;3349;49.830;8.748;2023-07-28T04:30:39;3.47;;;3.17;;
6626;SDS011;3349;49.830;8.748;2023-07-28T04:33:05;4.25;;;3.20;;
6626;SDS011;3349;49.830;8.748;2023-07-28T04:35:33;3.85;;;3.40;;
6626;SDS011;3349;49.830;8.748;2023-07-28T04:38:00;3.92;;;3.55;;
6626;SDS011;3349;49.830;8.748;2023-07-28T04:40:27;3.47;;;3.17;;
6626;SDS011;3349;49.830;8.748;2023-07-28T04:42:54;3.30;;;3.00;;
6626;SDS011;3349;49.830;8.748;2023-07-28T04:45:20;3.67;;;3.22;;
6626;SDS011;3349;49.830;8.748;2023-07-28T04:47:47;3.63;;;3.17;;
6626;SDS011;3349;49.830;8.748;2023-07-28T04:50:14;3.42;;;3.13;;
6626;SDS011;3349;49.830;8.748;2023-07-28T04:52:42;3.08;;;2.78;;
6626;SDS011;3349;49.830;8.748;2023-07-28T04:55:08;3.10;;;2.88;;
6626;SDS011;3349;49.830;8.748;2023-07-28T04:57:35;3.25;;;2.95;;
6626;SDS011;3349;49.830;8.748;2023-07-28T05:00:02;2.92;;;2.72;;
6626;SDS011;3349;49.830;8.748;2023-07-28T05:02:30;3.08;;;2.83;;
6626;SDS011;3349;49.830;8.748;2023-07-28T05:04:56;6.05;;;2.95;;
6626;SDS011;3349;49.830;8.748;2023-07-28T05:07:23;3.28;;;2.95;;
6626;SDS011;3349;49.830;8.748;2023-07-28T05:09:51;2.67;;;2.47;;
6626;SDS011;3349;49.830;8.748;2023-07-28T05:12:18;2.88;;;2.67;;
6626;SDS011;3349;49.830;8.748;2023-07-28T05:14:45;2.88;;;2.67;;
6626;SDS011;3349;49.830;8.748;2023-07-28T05:17:12;2.70;;;2.50;;
6626;SDS011;3349;49.830;8.748;2023-07-28T05:19:39;3.13;;;2.70;;
6626;SDS011;3349;49.830;8.748;2023-07-28T05:22:06;3.40;;;2.72;;
6626;SDS011;3349;49.830;8.748;2023-07-28T05:24:33;2.88;;;2.58;;
6626;SDS011;3349;49.830;8.748;2023-07-28T05:27:01;3.05;;;2.80;;
6626;SDS011;3349;49.830;8.748;2023-07-28T05:29:28;3.15;;;2.80;;
6626;SDS011;3349;49.830;8.748;2023-07-28T05:31:54;2.78;;;2.42;;
6626;SDS011;3349;49.830;8.748;2023-07-28T05:34:24;3.15;;;2.50;;
6626;SDS011;3349;49.830;8.748;2023-07-28T05:36:50;2.70;;;2.50;;
6626;SDS011;3349;49.830;8.748;2023-07-28T05:39:17;2.65;;;2.45;;
6626;SDS011;3349;49.830;8.748;2023-07-28T05:41:44;2.60;;;2.40;;
6626;SDS011;3349;49.830;8.748;2023-07-28T05:44:12;2.42;;;2.20;;
6626;SDS011;3349;49.830;8.748;2023-07-28T05:46:39;2.55;;;2.30;;
6626;SDS011;3349;49.830;8.748;2023-07-28T05:49:06;3.08;;;2.38;;
6626;SDS011;3349;49.830;8.748;2023-07-28T05:51:32;3.40;;;2.30;;
6626;SDS011;3349;49.830;8.748;2023-07-28T05:53:59;2.58;;;2.33;;
6626;SDS011;3349;49.830;8.748;2023-07-28T05:56:26;2.28;;;2.10;;
6626;SDS011;3349;49.830;8.748;2023-07-28T05:58:53;2.05;;;1.92;;
6626;SDS011;3349;49.830;8.748;2023-07-28T06:01:21;2.58;;;2.25;;
6626;SDS011;3349;49.830;8.748;2023-07-28T06:03:47;2.45;;;2.13;;
6626;SDS011;3349;49.830;8.748;2023-07-28T06:06:15;1.80;;;1.70;;
6626;SDS011;3349;49.830;8.748;2023-07-28T06:08:41;4.57;;;2.13;;
6626;SDS011;3349;49.830;8.748;2023-07-28T06:11:08;3.40;;;2.17;;
6626;SDS011;3349;49.830;8.748;2023-07-28T06:13:35;5.20;;;2.08;;
6626;SDS011;3349;49.830;8.748;2023-07-28T06:16:01;2.42;;;2.20;;
6626;SDS011;3349;49.830;8.748;2023-07-28T06:18:30;2.10;;;1.90;;
6626;SDS011;3349;49.830;8.748;2023-07-28T06:20:56;2.20;;;1.70;;
6626;SDS011;3349;49.830;8.748;2023-07-28T06:23:23;1.85;;;1.73;;
6626;SDS011;3349;49.830;8.748;2023-07-28T06:25:50;1.80;;;1.60;;
6626;SDS011;3349;49.830;8.748;2023-07-28T06:28:16;1.80;;;1.70;;
6626;SDS011;3349;49.830;8.748;2023-07-28T06:30:43;1.60;;;1.50;;
6626;SDS011;3349;49.830;8.748;2023-07-28T06:33:10;2.70;;;1.77;;
6626;SDS011;3349;49.830;8.748;2023-07-28T06:35:38;4.38;;;2.00;;
6626;SDS011;3349;49.830;8.748;2023-07-28T06:38:05;2.03;;;1.85;;
6626;SDS011;3349;49.830;8.748;2023-07-28T06:40:32;2.95;;;1.90;;
6626;SDS011;3349;49.830;8.748;2023-07-28T06:42:58;5.10;;;2.03;;
6626;SDS011;3349;49.830;8.748;2023-07-28T06:45:25;2.10;;;1.90;;
6626;SDS011;3349;49.830;8.748;2023-07-28T06:47:52;1.70;;;1.60;;
6626;SDS011;3349;49.830;8.748;2023-07-28T06:50:19;1.80;;;1.70;;
6626;SDS011;3349;49.830;8.748;2023-07-28T06:52:47;2.03;;;1.90;;
6626;SDS011;3349;49.830;8.748;2023-07-28T06:55:15;2.22;;;1.70;;
6626;SDS011;3349;49.830;8.748;2023-07-28T06:57:41;1.73;;;1.63;;
6626;SDS011;3349;49.830;8.748;2023-07-28T07:00:08;1.42;;;1.33;;
6626;SDS011;3349;49.830;8.748;2023-07-28T07:02:36;1.90;;;1.70;;
6626;SDS011;3349;49.830;8.748;2023-07-28T07:05:03;2.40;;;1.58;;
6626;SDS011;3349;49.830;8.748;2023-07-28T07:07:31;1.73;;;1.63;;
6626;SDS011;3349;49.830;8.748;2023-07-28T07:09:59;2.00;;;1.80;;
6626;SDS011;3349;49.830;8.748;2023-07-28T07:12:26;1.95;;;1.80;;
6626;SDS011;3349;49.830;8.748;2023-07-28T07:14:53;2.90;;;1.98;;
6626;SDS011;3349;49.830;8.748;2023-07-28T07:17:20;1.90;;;1.80;;
6626;SDS011;3349;49.830;8.748;2023-07-28T07:19:46;2.28;;;2.03;;
6626;SDS011;3349;49.830;8.748;2023-07-28T07:22:13;2.63;;;2.08;;
6626;SDS011;3349;49.830;8.748;2023-07-28T07:24:40;2.42;;;2.22;;
6626;SDS011;3349;49.830;8.748;2023-07-28T07:27:08;2.72;;;2.10;;
6626;SDS011;3349;49.830;8.748;2023-07-28T07:29:36;2.25;;;2.05;;
6626;SDS011;3349;49.830;8.748;2023-07-28T07:32:03;2.33;;;2.13;;
6626;SDS011;3349;49.830;8.748;2023-07-28T07:34:31;4.13;;;2.13;;
6626;SDS011;3349;49.830;8.748;2023-07-28T07:36:59;2.20;;;2.00;;
6626;SDS011;3349;49.830;8.748;2023-07-28T07:39:26;4.32;;;2.15;;
6626;SDS011;3349;49.830;8.748;2023-07-28T07:41:53;1.98;;;1.88;;
6626;SDS011;3349;49.830;8.748;2023-07-28T07:44:21;2.10;;;1.90;;
6626;SDS011;3349;49.830;8.748;2023-07-28T07:46:47;2.28;;;2.08;;
6626;SDS011;3349;49.830;8.748;2023-07-28T07:49:14;2.75;;;2.10;;
6626;SDS011;3349;49.830;8.748;2023-07-28T07:51:41;2.50;;;2.30;;
6626;SDS011;3349;49.830;8.748;2023-07-28T07:54:07;2.40;;;2.20;;
6626;SDS011;3349;49.830;8.748;2023-07-28T07:56:34;2.22;;;2.03;;
6626;SDS011;3349;49.830;8.748;2023-07-28T07:59:01;3.10;;;2.22;;
6626;SDS011;3349;49.830;8.748;2023-07-28T08:01:29;2.17;;;1.98;;
6626;SDS011;3349;49.830;8.748;2023-07-28T08:03:56;3.00;;;2.10;;
6626;SDS011;3349;49.830;8.748;2023-07-28T08:06:22;2.63;;;2.00;;
6626;SDS011;3349;49.830;8.748;2023-07-28T08:08:49;2.00;;;1.80;;
6626;SDS011;3349;49.830;8.748;2023-07-28T08:11:17;1.85;;;1.75;;
6626;SDS011;3349;49.830;8.748;2023-07-28T08:13:44;1.90;;;1.80;;
6626;SDS011;3349;49.830;8.748;2023-07-28T08:16:13;1.70;;;1.60;;
6626;SDS011;3349;49.830;8.748;2023-07-28T08:18:41;3.13;;;1.90;;
6626;SDS011;3349;49.830;8.748;2023-07-28T08:21:08;2.90;;;1.80;;
6626;SDS011;3349;49.830;8.748;2023-07-28T08:23:35;2.20;;;2.00;;
6626;SDS011;3349;49.830;8.748;2023-07-28T08:26:01;1.80;;;1.60;;
6626;SDS011;3349;49.830;8.748;2023-07-28T08:28:28;1.88;;;1.42;;
6626;SDS011;3349;49.830;8.748;2023-07-28T08:30:55;1.60;;;1.50;;
6626;SDS011;3349;49.830;8.748;2023-07-28T08:33:23;2.25;;;1.77;;
6626;SDS011;3349;49.830;8.748;2023-07-28T08:35:51;3.00;;;1.80;;
6626;SDS011;3349;49.830;8.748;2023-07-28T08:38:17;3.25;;;2.30;;
6626;SDS011;3349;49.830;8.748;2023-07-28T08:40:44;2.55;;;2.35;;
6626;SDS011;3349;49.830;8.748;2023-07-28T08:43:11;3.47;;;2.10;;
6626;SDS011;3349;49.830;8.748;2023-07-28T08:45:38;2.33;;;2.13;;
6626;SDS011;3349;49.830;8.748;2023-07-28T08:48:05;2.53;;;2.33;;
6626;SDS011;3349;49.830;8.748;2023-07-28T08:50:33;3.83;;;2.08;;
6626;SDS011;3349;49.830;8.748;2023-07-28T08:53:01;2.53;;;2.33;;
6626;SDS011;3349;49.830;8.748;2023-07-28T08:55:27;2.65;;;2.45;;
6626;SDS011;3349;49.830;8.748;2023-07-28T08:57:54;2.53;;;2.30;;
6626;SDS011;3349;49.830;8.748;2023-07-28T09:00:21;3.50;;;2.33;;
6626;SDS011;3349;49.830;8.748;2023-07-28T09:02:50;2.88;;;2.42;;
6626;SDS011;3349;49.830;8.748;2023-07-28T09:05:18;2.63;;;2.33;;
6626;SDS011;3349;49.830;8.748;2023-07-28T09:07:46;2.33;;;2.00;;
6626;SDS011;3349;49.830;8.748;2023-07-28T09:10:14;2.53;;;2.33;;
6626;SDS011;3349;49.830;8.748;2023-07-28T09:12:44;2.45;;;2.25;;
6626;SDS011;3349;49.830;8.748;2023-07-28T09:15:12;2.35;;;2.15;;
6626;SDS011;3349;49.830;8.748;2023-07-28T09:17:41;3.10;;;2.20;;
6626;SDS011;3349;49.830;8.748;2023-07-28T09:20:08;2.35;;;2.10;;
6626;SDS011;3349;49.830;8.748;2023-07-28T09:22:39;3.05;;;2.10;;
6626;SDS011;3349;49.830;8.748;2023-07-28T09:25:11;2.20;;;1.98;;
6626;SDS011;3349;49.830;8.748;2023-07-28T09:27:40;2.25;;;2.00;;
6626;SDS011;3349;49.830;8.748;2023-07-28T09:30:07;2.05;;;1.83;;
6626;SDS011;3349;49.830;8.748;2023-07-28T09:32:34;2.42;;;2.22;;
6626;SDS011;3349;49.830;8.748;2023-07-28T09:35:05;2.88;;;2.03;;
6626;SDS011;3349;49.830;8.748;2023-07-28T09:37:35;2.92;;;2.42;;
6626;SDS011;3349;49.830;8.748;2023-07-28T09:40:04;3.60;;;2.53;;
6626;SDS011;3349;49.830;8.748;2023-07-28T09:42:36;3.53;;;2.60;;
6626;SDS011;3349;49.830;8.748;2023-07-28T09:45:05;2.80;;;2.30;;
6626;SDS011;3349;49.830;8.748;2023-07-28T09:47:34;2.58;;;2.00;;
6626;SDS011;3349;49.830;8.748;2023-07-28T09:50:03;2.53;;;2.33;;
6626;SDS011;3349;49.830;8.748;2023-07-28T09:52:31;2.45;;;2.25;;
6626;SDS011;3349;49.830;8.748;2023-07-28T09:55:03;2.38;;;2.17;;
6626;SDS011;3349;49.830;8.748;2023-07-28T09:57:35;3.58;;;2.58;;
6626;SDS011;3349;49.830;8.748;2023-07-28T10:00:06;2.63;;;2.22;;
6626;SDS011;3349;49.830;8.748;2023-07-28T10:02:34;2.95;;;2.65;;
6626;SDS011;3349;49.830;8.748;2023-07-28T10:05:03;2.28;;;2.08;;
6626;SDS011;3349;49.830;8.748;2023-07-28T10:07:31;2.75;;;2.45;;
6626;SDS011;3349;49.830;8.748;2023-07-28T10:09:59;2.75;;;2.55;;
6626;SDS011;3349;49.830;8.748;2023-07-28T10:12:26;2.65;;;2.45;;
6626;SDS011;3349;49.830;8.748;2023-07-28T10:14:59;3.90;;;2.60;;
6626;SDS011;3349;49.830;8.748;2023-07-28T10:17:31;2.85;;;2.60;;
6626;SDS011;3349;49.830;8.748;2023-07-28T10:19:59;3.70;;;2.60;;
6626;SDS011;3349;49.830;8.748;2023-07-28T10:22:32;3.50;;;2.80;;
6626;SDS011;3349;49.830;8.748;2023-07-28T10:25:00;2.95;;;2.67;;
6626;SDS011;3349;49.830;8.748;2023-07-28T10:27:31;2.80;;;2.60;;
6626;SDS011;3349;49.830;8.748;2023-07-28T10:30:01;2.83;;;2.63;;
6626;SDS011;3349;49.830;8.748;2023-07-28T10:32:37;2.60;;;2.40;;
6626;SDS011;3349;49.830;8.748;2023-07-28T10:35:06;4.20;;;2.80;;
6626;SDS011;3349;49.830;8.748;2023-07-28T10:37:34;3.10;;;2.80;;
6626;SDS011;3349;49.830;8.748;2023-07-28T10:42:53;5.10;;;2.80;;
6626;SDS011;3349;49.830;8.748;2023-07-28T10:45:20;2.63;;;2.42;;
6626;SDS011;3349;49.830;8.748;2023-07-28T10:47:50;2.50;;;2.30;;
6626;SDS011;3349;49.830;8.748;2023-07-28T10:50:20;2.80;;;2.60;;
6626;SDS011;3349;49.830;8.748;2023-07-28T10:52:47;3.25;;;2.75;;
6626;SDS011;3349;49.830;8.748;2023-07-28T10:55:14;3.50;;;2.28;;
6626;SDS011;3349;49.830;8.748;2023-07-28T10:57:42;4.35;;;2.60;;
6626;SDS011;3349;49.830;8.748;2023-07-28T11:00:10;2.72;;;2.53;;
6626;SDS011;3349;49.830;8.748;2023-07-28T11:02:38;3.20;;;2.40;;
6626;SDS011;3349;49.830;8.748;2023-07-28T11:05:11;2.65;;;2.20;;
6626;SDS011;3349;49.830;8.748;2023-07-28T11:07:47;4.43;;;2.50;;
6626;SDS011;3349;49.830;8.748;2023-07-28T11:10:14;2.50;;;2.00;;
6626;SDS011;3349;49.830;8.748;2023-07-28T11:12:41;2.45;;;2.22;;
6626;SDS011;3349;49.830;8.748;2023-07-28T11:15:09;2.38;;;2.17;;
6626;SDS011;3349;49.830;8.748;2023-07-28T11:17:37;2.15;;;2.05;;
6626;SDS011;3349;49.830;8.748;2023-07-28T11:20:04;2.38;;;2.10;;
6626;SDS011;3349;49.830;8.748;2023-07-28T11:22:41;2.50;;;2.00;;
6626;SDS011;3349;49.830;8.748;2023-07-28T11:25:08;2.40;;;2.20;;
6626;SDS011;3349;49.830;8.748;2023-07-28T11:27:35;2.60;;;2.40;;
6626;SDS011;3349;49.830;8.748;2023-07-28T11:30:02;2.50;;;2.30;;
6626;SDS011;3349;49.830;8.748;2023-07-28T11:32:30;2.60;;;2.40;;
6626;SDS011;3349;49.830;8.748;2023-07-28T11:35:02;3.05;;;2.15;;
6626;SDS011;3349;49.830;8.748;2023-07-28T11:37:30;2.78;;;2.22;;
6626;SDS011;3349;49.830;8.748;2023-07-28T11:40:00;3.13;;;2.10;;
6626;SDS011;3349;49.830;8.748;2023-07-28T11:42:31;2.28;;;2.08;;
6626;SDS011;3349;49.830;8.748;2023-07-28T11:44:58;2.97;;;2.17;;
6626;SDS011;3349;49.830;8.748;2023-07-28T11:47:25;2.13;;;2.00;;
6626;SDS011;3349;49.830;8.748;2023-07-28T11:49:52;2.60;;;2.33;;
6626;SDS011;3349;49.830;8.748;2023-07-28T11:52:19;2.92;;;2.63;;
6626;SDS011;3349;49.830;8.748;2023-07-28T11:54:46;3.03;;;2.72;;
6626;SDS011;3349;49.830;8.748;2023-07-28T11:57:14;2.37;;;2.17;;
6626;SDS011;3349;49.830;8.748;2023-07-28T11:59:41;2.85;;;2.55;;
6626;SDS011;3349;49.830;8.748;2023-07-28T12:02:09;2.78;;;2.55;;
6626;SDS011;3349;49.830;8.748;2023-07-28T12:04:36;2.40;;;2.20;;
6626;SDS011;3349;49.830;8.748;2023-07-28T12:07:05;2.83;;;2.55;;
6626;SDS011;3349;49.830;8.748;2023-07-28T12:09:33;2.42;;;2.22;;
6626;SDS011;3349;49.830;8.748;2023-07-28T12:12:19;2.40;;;2.20;;
6626;SDS011;3349;49.830;8.748;2023-07-28T12:14:48;2.40;;;2.20;;
6626;SDS011;3349;49.830;8.748;2023-07-28T12:17:17;2.22;;;2.03;;
6626;SDS011;3349;49.830;8.748;2023-07-28T12:19:54;2.30;;;2.10;;
6626;SDS011;3349;49.830;8.748;2023-07-28T12:22:23;2.70;;;2.17;;
6626;SDS011;3349;49.830;8.748;2023-07-28T12:24:50;2.30;;;2.10;;
6626;SDS011;3349;49.830;8.748;2023-07-28T12:27:16;2.42;;;2.20;;
6626;SDS011;3349;49.830;8.748;2023-07-28T12:29:45;3.20;;;2.45;;
6626;SDS011;3349;49.830;8.748;2023-07-28T12:32:12;2.50;;;2.30;;
6626;SDS011;3349;49.830;8.748;2023-07-28T12:34:39;2.65;;;2.40;;
6626;SDS011;3349;49.830;8.748;2023-07-28T12:37:06;2.67;;;2.47;;
6626;SDS011;3349;49.830;8.748;2023-07-28T12:39:33;2.42;;;2.20;;
6626;SDS011;3349;49.830;8.748;2023-07-28T12:42:02;2.83;;;2.60;;
6626;SDS011;3349;49.830;8.748;2023-07-28T12:44:30;3.17;;;2.60;;
6626;SDS011;3349;49.830;8.748;2023-07-28T12:46:57;3.40;;;2.38;;
6626;SDS011;3349;49.830;8.748;2023-07-28T12:49:24;2.60;;;2.40;;
6626;SDS011;3349;49.830;8.748;2023-07-28T12:51:51;2.60;;;2.40;;
6626;SDS011;3349;49.830;8.748;2023-07-28T12:54:17;2.60;;;2.40;;
6626;SDS011;3349;49.830;8.748;2023-07-28T12:56:44;2.25;;;2.05;;
6626;SDS011;3349;49.830;8.748;2023-07-28T12:59:11;3.97;;;2.58;;
6626;SDS011;3349;49.830;8.748;2023-07-28T13:01:39;2.60;;;2.40;;
6626;SDS011;3349;49.830;8.748;2023-07-28T13:04:06;2.67;;;2.47;;
6626;SDS011;3349;49.830;8.748;2023-07-28T13:06:33;2.30;;;2.10;;
6626;SDS011;3349;49.830;8.748;2023-07-28T13:09:01;2.63;;;2.38;;
6626;SDS011;3349;49.830;8.748;2023-07-28T13:11:28;2.50;;;2.30;;
6626;SDS011;3349;49.830;8.748;2023-07-28T13:13:55;2.60;;;2.22;;
6626;SDS011;3349;49.830;8.748;2023-07-28T13:16:22;2.40;;;2.20;;
6626;SDS011;3349;49.830;8.748;2023-07-28T13:18:50;2.58;;;2.38;;
6626;SDS011;3349;49.830;8.748;2023-07-28T13:21:17;2.65;;;2.42;;
6626;SDS011;3349;49.830;8.748;2023-07-28T13:23:43;3.63;;;2.50;;
6626;SDS011;3349;49.830;8.748;2023-07-28T13:26:10;2.60;;;2.40;;
6626;SDS011;3349;49.830;8.748;2023-07-28T13:28:37;3.42;;;2.80;;
6626;SDS011;3349;49.830;8.748;2023-07-28T13:31:08;3.38;;;2.75;;
6626;SDS011;3349;49.830;8.748;2023-07-28T13:33:34;3.03;;;2.80;;
6626;SDS011;3349;49.830;8.748;2023-07-28T13:36:02;3.05;;;2.75;;
6626;SDS011;3349;49.830;8.748;2023-07-28T13:38:32;3.42;;;2.85;;
6626;SDS011;3349;49.830;8.748;2023-07-28T13:40:59;2.92;;;2.72;;
6626;SDS011;3349;49.830;8.748;2023-07-28T13:43:26;2.65;;;2.45;;
6626;SDS011;3349;49.830;8.748;2023-07-28T13:45:53;2.90;;;2.70;;
6626;SDS011;3349;49.830;8.748;2023-07-28T13:48:19;4.38;;;2.63;;
6626;SDS011;3349;49.830;8.748;2023-07-28T13:50:46;2.90;;;2.70;;
6626;SDS011;3349;49.830;8.748;2023-07-28T13:53:14;2.70;;;2.47;;
6626;SDS011;3349;49.830;8.748;2023-07-28T13:55:41;2.97;;;2.70;;
6626;SDS011;3349;49.830;8.748;2023-07-28T13:58:08;3.42;;;2.95;;
6626;SDS011;3349;49.830;8.748;2023-07-28T14:00:35;3.83;;;2.78;;
6626;SDS011;3349;49.830;8.748;2023-07-28T14:03:02;3.45;;;2.47;;
6626;SDS011;3349;49.830;8.748;2023-07-28T14:05:28;2.90;;;2.47;;
6626;SDS011;3349;49.830;8.748;2023-07-28T14:07:55;3.50;;;2.53;;
6626;SDS011;3349;49.830;8.748;2023-07-28T14:10:23;3.78;;;2.75;;
6626;SDS011;3349;49.830;8.748;2023-07-28T14:12:50;3.28;;;2.75;;
6626;SDS011;3349;49.830;8.748;2023-07-28T14:15:17;3.33;;;3.03;;
6626;SDS011;3349;49.830;8.748;2023-07-28T14:17:44;3.47;;;2.75;;
6626;SDS011;3349;49.830;8.748;2023-07-28T14:20:11;5.65;;;2.90;;
6626;SDS011;3349;49.830;8.748;2023-07-28T14:22:37;3.67;;;2.90;;
6626;SDS011;3349;49.830;8.748;2023-07-28T14:25:04;4.65;;;3.28;;
6626;SDS011;3349;49.830;8.748;2023-07-28T14:27:33;3.40;;;3.10;;
6626;SDS011;3349;49.830;8.748;2023-07-28T14:29:59;3.45;;;3.15;;
6626;SDS011;3349;49.830;8.748;2023-07-28T14:32:26;3.15;;;2.85;;
6626;SDS011;3349;49.830;8.748;2023-07-28T14:34:53;3.17;;;2.97;;
6626;SDS011;3349;49.830;8.748;2023-07-28T14:37:20;3.25;;;2.95;;
6626;SDS011;3349;49.830;8.748;2023-07-28T14:39:47;3.55;;;2.72;;
6626;SDS011;3349;49.830;8.748;2023-07-28T14:42:13;3.15;;;2.80;;
6626;SDS011;3349;49.830;8.748;2023-07-28T14:44:42;3.47;;;3.03;;
6626;SDS011;3349;49.830;8.748;2023-07-28T14:47:09;3.10;;;2.80;;
6626;SDS011;3349;49.830;8.748;2023-07-28T14:49:36;2.78;;;2.53;;
6626;SDS011;3349;49.830;8.748;2023-07-28T14:52:02;2.58;;;2.38;;
6626;SDS011;3349;49.830;8.748;2023-07-28T14:54:29;2.45;;;2.17;;
6626;SDS011;3349;49.830;8.748;2023-07-28T14:56:56;2.50;;;2.30;;
6626;SDS011;3349;49.830;8.748;2023-07-28T14:59:23;2.22;;;2.03;;
6626;SDS011;3349;49.830;8.748;2023-07-28T15:01:51;2.28;;;2.10;;
6626;SDS011;3349;49.830;8.748;2023-07-28T15:04:17;2.40;;;2.20;;
6626;SDS011;3349;49.830;8.748;2023-07-28T15:06:44;2.38;;;2.17;;
6626;SDS011;3349;49.830;8.748;2023-07-28T15:09:11;2.45;;;2.10;;
6626;SDS011;3349;49.830;8.748;2023-07-28T15:11:38;2.45;;;2.15;;
6626;SDS011;3349;49.830;8.748;2023-07-28T15:14:04;2.45;;;2.25;;
6626;SDS011;3349;49.830;8.748;2023-07-28T15:16:32;4.03;;;2.03;;
6626;SDS011;3349;49.830;8.748;2023-07-28T15:19:00;1.83;;;1.73;;